TimeCST,TemperatureF,Dew PointF,Humidity,Sea Level PressureIn,VisibilityMPH,Wind Direction,Wind SpeedMPH,Gust SpeedMPH,PrecipitationIn,Events,Conditions,WindDirDegrees,DateUTC
12:54 AM,8.1,-0.9,67,30.41,10.0,NW,5.8,-,N/A,,Clear,310,2013-01-22 06:54:00
1:54 AM,9.0,-0.9,64,30.43,10.0,NNW,5.8,-,N/A,,Clear,330,2013-01-22 07:54:00
2:54 AM,10.0,-0.9,61,30.43,10.0,NNW,12.7,-,N/A,,Scattered Clouds,330,2013-01-22 08:54:00
3:54 AM,7.0,-2.0,67,30.44,10.0,NNW,10.4,-,N/A,,Clear,340,2013-01-22 09:54:00
4:54 AM,6.1,-4.0,63,30.44,10.0,NNW,10.4,-,N/A,,Clear,340,2013-01-22 10:54:00
5:54 AM,6.1,-4.0,63,30.45,10.0,NNW,6.9,-,N/A,,Clear,340,2013-01-22 11:54:00
6:54 AM,6.1,-4.0,63,30.45,10.0,North,4.6,-,N/A,,Overcast,10,2013-01-22 12:54:00
7:54 AM,7.0,-4.0,61,30.46,10.0,North,5.8,-,N/A,,Overcast,350,2013-01-22 13:54:00
8:54 AM,7.0,-6.0,55,30.47,10.0,NW,5.8,-,N/A,,Overcast,310,2013-01-22 14:54:00
9:54 AM,8.1,-5.1,55,30.50,10.0,WNW,5.8,-,N/A,,Overcast,300,2013-01-22 15:54:00
10:54 AM,9.0,-4.0,56,30.52,10.0,NW,5.8,-,N/A,,Overcast,310,2013-01-22 16:54:00
11:54 AM,10.9,-2.0,56,30.49,10.0,WSW,8.1,-,N/A,,Overcast,240,2013-01-22 17:54:00
12:54 PM,12.0,-2.9,51,30.45,10.0,WNW,4.6,-,N/A,,Overcast,300,2013-01-22 18:54:00
1:54 PM,12.9,-2.9,49,30.44,10.0,NNW,3.5,-,N/A,,Overcast,330,2013-01-22 19:54:00
2:54 PM,15.1,-2.9,45,30.42,10.0,NW,5.8,-,N/A,,Overcast,320,2013-01-22 20:54:00
3:54 PM,15.1,-2.0,47,30.40,10.0,Calm,Calm,-,N/A,,Overcast,0,2013-01-22 21:54:00
4:54 PM,15.1,-0.9,49,30.40,10.0,NNW,4.6,-,N/A,,Overcast,330,2013-01-22 22:54:00
5:54 PM,15.1,-0.0,51,30.40,10.0,Calm,Calm,-,N/A,,Overcast,0,2013-01-22 23:54:00
6:54 PM,15.1,-0.0,51,30.40,10.0,Calm,Calm,-,N/A,,Mostly Cloudy,0,2013-01-23 00:54:00
7:54 PM,15.1,1.0,54,30.41,10.0,Calm,Calm,-,N/A,,Overcast,0,2013-01-23 01:54:00
8:54 PM,15.1,1.0,54,30.40,10.0,Calm,Calm,-,N/A,,Overcast,0,2013-01-23 02:54:00
9:54 PM,15.1,-0.0,51,30.41,10.0,Calm,Calm,-,N/A,,Overcast,0,2013-01-23 03:54:00
10:54 PM,16.0,1.9,54,30.40,10.0,Calm,Calm,-,N/A,,Overcast,0,2013-01-23 04:54:00
11:54 PM,14.0,3.0,62,30.38,10.0,SSE,3.5,-,N/A,,Partly Cloudy,150,2013-01-23 05:54:00